createdAt,value
2022-11-24T00:01:08.552Z,97168.56
2022-11-24T00:03:35.606Z,97176.56
2022-11-24T00:06:04.559Z,97167.50
2022-11-24T00:08:31.551Z,97156.44
2022-11-24T00:11:06.497Z,97154.56
2022-11-24T00:13:33.878Z,97165.78
2022-11-24T00:16:31.045Z,97165.50
2022-11-24T00:18:59.469Z,97161.28
2022-11-24T00:21:27.706Z,97167.75
2022-11-24T00:23:54.555Z,97173.06
2022-11-24T00:26:23.567Z,97185.59
2022-11-24T00:28:51.677Z,97189.03
2022-11-24T00:31:19.777Z,97195.97
2022-11-24T00:33:48.064Z,97205.28
2022-11-24T00:36:15.777Z,97211.63
2022-11-24T00:38:43.011Z,97217.16
2022-11-24T00:41:10.124Z,97225.94
2022-11-24T00:43:36.971Z,97227.53
2022-11-24T00:46:04.211Z,97228.25
2022-11-24T00:48:31.424Z,97240.81
2022-11-24T00:51:02.620Z,97227.97
2022-11-24T00:53:30.229Z,97228.25
2022-11-24T00:55:57.032Z,97240.53
2022-11-24T00:58:24.778Z,97242.09
2022-11-24T01:00:51.736Z,97242.91
2022-11-24T01:03:20.279Z,97246.13
2022-11-24T01:05:47.230Z,97247.72
2022-11-24T01:08:14.889Z,97248.56
2022-11-24T01:10:41.667Z,97259.56
2022-11-24T01:13:08.479Z,97254.50
2022-11-24T01:15:36.272Z,97254.53
2022-11-24T01:18:04.658Z,97254.81
2022-11-24T01:20:32.113Z,97275.91
2022-11-24T01:22:58.956Z,97274.03
2022-11-24T01:25:25.638Z,97287.38
2022-11-24T01:27:52.749Z,97270.06
2022-11-24T01:30:19.547Z,97264.78
2022-11-24T01:32:46.279Z,97266.66
2022-11-24T01:35:13.035Z,97264.78
2022-11-24T01:37:39.806Z,97267.19
2022-11-24T01:40:07.328Z,97268.81
2022-11-24T01:42:43.778Z,97271.50
2022-11-24T01:45:36.659Z,97286.94
2022-11-24T01:48:05.829Z,97282.44
2022-11-24T01:50:33.789Z,97296.00
2022-11-24T01:53:00.646Z,97296.81
2022-11-24T01:55:31.012Z,97290.16
2022-11-24T01:58:05.868Z,97299.19
2022-11-24T02:00:34.001Z,97299.19
2022-11-24T02:03:00.964Z,97300.00
2022-11-24T02:06:04.265Z,97308.81
2022-11-24T02:08:40.550Z,97313.56
2022-11-24T02:11:07.561Z,97312.53
2022-11-24T02:13:37.374Z,97323.44
2022-11-24T02:16:05.859Z,97326.13
2022-11-24T02:18:32.717Z,97333.84
2022-11-24T02:21:00.202Z,97333.84
2022-11-24T02:23:42.176Z,97355.94
2022-11-24T02:26:31.376Z,97349.03
2022-11-24T02:28:58.228Z,97355.41
2022-11-24T02:31:25.349Z,97358.88
2022-11-24T02:33:52.214Z,97355.69
2022-11-24T02:36:18.969Z,97351.16
2022-11-24T02:38:45.665Z,97353.28
2022-11-24T02:41:15.873Z,97361.81
2022-11-24T02:43:48.430Z,97380.47
2022-11-24T02:46:15.191Z,97369.28
2022-11-24T02:48:42.377Z,97378.03
2022-11-24T02:51:09.360Z,97373.00
2022-11-24T02:53:36.076Z,97376.97
2022-11-24T02:56:02.901Z,97394.28
2022-11-24T02:58:29.721Z,97391.63
2022-11-24T03:00:57.350Z,97410.53
2022-11-24T03:03:24.671Z,97404.94
2022-11-24T03:05:51.445Z,97410.28
2022-11-24T03:08:18.212Z,97415.06
2022-11-24T03:10:45.255Z,97431.06
2022-11-24T03:13:12.154Z,97427.06
2022-11-24T03:15:38.945Z,97435.31
2022-11-24T03:18:07.098Z,97434.53
2022-11-24T03:20:33.933Z,97448.63
2022-11-24T03:23:00.616Z,97450.50
2022-11-24T03:25:27.383Z,97452.91
2022-11-24T03:27:56.488Z,97454.22
2022-11-24T03:30:23.287Z,97466.47
2022-11-24T03:32:52.570Z,97473.69
2022-11-24T03:35:20.762Z,97472.06
2022-11-24T03:37:47.529Z,97481.41
2022-11-24T03:40:14.429Z,97473.69
2022-11-24T03:42:48.869Z,97480.88
2022-11-24T03:45:44.122Z,97498.44
2022-11-24T03:48:04.536Z,97501.63
2022-11-24T03:50:31.254Z,97497.38
2022-11-24T03:52:58.068Z,97515.00
2022-11-24T03:55:24.878Z,97509.38
2022-11-24T03:57:51.781Z,97501.41
2022-11-24T04:00:18.842Z,97504.59
2022-11-24T04:02:45.650Z,97507.00
2022-11-24T04:05:12.534Z,97510.47
2022-11-24T04:07:39.417Z,97524.34
2022-11-24T04:10:06.983Z,97518.72
2022-11-24T04:12:46.032Z,97523.03
2022-11-24T04:15:15.654Z,97523.03
2022-11-24T04:17:42.917Z,97521.44
2022-11-24T04:20:10.464Z,97524.63
2022-11-24T04:22:37.184Z,97527.53
2022-11-24T04:25:04.813Z,97531.84
2022-11-24T04:27:35.245Z,97524.38
2022-11-24T04:30:02.251Z,97528.38
2022-11-24T04:32:29.522Z,97525.94
2022-11-24T04:34:56.375Z,97522.72
2022-11-24T04:37:23.073Z,97535.22
2022-11-24T04:39:49.910Z,97542.13
2022-11-24T04:42:16.612Z,97542.34
2022-11-24T04:44:43.321Z,97546.59
2022-11-24T04:47:15.723Z,97555.94
2022-11-24T04:49:42.491Z,97562.38
2022-11-24T04:52:09.193Z,97568.56
2022-11-24T04:54:36.159Z,97574.16
2022-11-24T04:57:03.020Z,97580.22
2022-11-24T04:59:30.146Z,97584.31
2022-11-24T05:01:56.864Z,97606.72
2022-11-24T05:04:23.748Z,97606.19
2022-11-24T05:06:50.457Z,97602.72
2022-11-24T05:09:17.918Z,97611.56
2022-11-24T05:11:44.683Z,97612.59
2022-11-24T05:14:11.422Z,97615.78
2022-11-24T05:16:38.204Z,97619.03
2022-11-24T05:19:05.006Z,97622.50
2022-11-24T05:21:31.766Z,97610.50
2022-11-24T05:23:58.561Z,97615.34
2022-11-24T05:26:26.803Z,97618.56
2022-11-24T05:28:53.791Z,97626.84
2022-11-24T05:31:20.544Z,97629.50
2022-11-24T05:33:47.521Z,97628.72
2022-11-24T05:36:34.183Z,97630.84
2022-11-24T05:39:01.401Z,97627.88
2022-11-24T05:41:28.129Z,97625.16
2022-11-24T05:43:54.930Z,97621.97
2022-11-24T05:46:21.729Z,97625.69
2022-11-24T05:48:48.749Z,97633.91
2022-11-24T05:51:15.441Z,97653.63
2022-11-24T05:53:42.243Z,97672.28
2022-11-24T05:56:09.048Z,97672.34
2022-11-24T05:58:35.823Z,97677.19
2022-11-24T06:01:06.405Z,97683.84
2022-11-24T06:03:33.337Z,97687.09
2022-11-24T06:06:00.110Z,97685.66
2022-11-24T06:08:30.840Z,97687.31
2022-11-24T06:11:17.613Z,97695.91
2022-11-24T06:13:45.632Z,97703.41
2022-11-24T06:16:12.884Z,97701.22
2022-11-24T06:18:39.758Z,97712.44
2022-11-24T06:21:11.465Z,97712.44
2022-11-24T06:23:39.414Z,97718.84
2022-11-24T06:26:06.790Z,97733.28
2022-11-24T06:28:33.593Z,97741.03
2022-11-24T06:31:04.223Z,97757.50
2022-11-24T06:33:34.684Z,97758.69
2022-11-24T06:36:04.641Z,97757.06
2022-11-24T06:38:32.207Z,97751.97
2022-11-24T06:41:03.640Z,97757.88
2022-11-24T06:43:31.083Z,97755.44
2022-11-24T06:45:58.370Z,97752.19
2022-11-24T06:48:26.147Z,97755.94
2022-11-24T06:50:53.511Z,97755.09
2022-11-24T06:53:20.542Z,97761.75
2022-11-24T06:55:47.418Z,97764.91
2022-11-24T06:58:14.172Z,97770.25
2022-11-24T07:00:41.078Z,97753.13
2022-11-24T07:03:08.965Z,97750.97
2022-11-24T07:05:35.708Z,97755.50
2022-11-24T07:08:02.549Z,97765.84
2022-11-24T07:10:29.355Z,97779.44
2022-11-24T07:12:56.099Z,97781.31
2022-11-24T07:15:22.877Z,97779.41
2022-11-24T07:17:49.631Z,97772.22
2022-11-24T07:20:16.819Z,97773.81
2022-11-24T07:22:43.604Z,97778.28
2022-11-24T07:25:10.996Z,97774.31
2022-11-24T07:27:37.810Z,97770.53
2022-11-24T07:30:05.050Z,97768.13
2022-11-24T07:32:31.848Z,97764.16
2022-11-24T07:34:58.731Z,97767.84
2022-11-24T07:37:31.014Z,97776.66
2022-11-24T07:39:58.452Z,97783.59
2022-11-24T07:42:25.122Z,97796.88
2022-11-24T07:44:51.900Z,97800.88
2022-11-24T07:47:18.639Z,97808.59
2022-11-24T07:49:45.516Z,97818.19
2022-11-24T07:52:12.259Z,97832.59
2022-11-24T07:54:38.987Z,97833.88
2022-11-24T07:57:05.708Z,97839.41
2022-11-24T07:59:32.572Z,97844.44
2022-11-24T08:01:59.331Z,97839.56
2022-11-24T08:04:26.078Z,97849.13
2022-11-24T08:06:52.804Z,97845.13
2022-11-24T08:09:19.682Z,97856.88
2022-11-24T08:11:46.419Z,97862.81
2022-11-24T08:14:13.225Z,97871.84
2022-11-24T08:16:40.081Z,97875.63
2022-11-24T08:19:06.938Z,97887.47
2022-11-24T08:21:33.799Z,97872.56
2022-11-24T08:24:00.710Z,97875.19
2022-11-24T08:26:27.590Z,97890.44
2022-11-24T08:28:56.756Z,97897.38
2022-11-24T08:31:24.988Z,97898.97
2022-11-24T08:33:51.820Z,97908.56
2022-11-24T08:36:19.391Z,97910.34
2022-11-24T08:38:47.310Z,97910.38
2022-11-24T08:41:16.118Z,97916.50
2022-11-24T08:43:43.333Z,97917.03
2022-11-24T08:46:12.689Z,97917.31
2022-11-24T08:48:39.652Z,97920.03
2022-11-24T08:51:09.424Z,97926.66
2022-11-24T08:53:36.506Z,97924.50
2022-11-24T08:56:05.147Z,97935.19
2022-11-24T08:58:32.535Z,97937.38
2022-11-24T09:01:14.167Z,97950.44
2022-11-24T09:03:48.255Z,97960.09
2022-11-24T09:06:25.241Z,97961.00
2022-11-24T09:08:54.095Z,97962.66
2022-11-24T09:11:20.823Z,97966.28
2022-11-24T09:13:47.713Z,97960.44
2022-11-24T09:16:17.219Z,97945.06
2022-11-24T09:18:44.759Z,97942.97
2022-11-24T09:21:12.854Z,97957.94
2022-11-24T09:23:40.598Z,97951.84
2022-11-24T09:26:09.256Z,97952.69
2022-11-24T09:28:36.236Z,97948.41
2022-11-24T09:31:04.652Z,97953.75
2022-11-24T09:33:32.263Z,97943.66
2022-11-24T09:35:59.612Z,97947.44
2022-11-24T09:38:26.649Z,97941.25
2022-11-24T09:40:55.869Z,97947.03
2022-11-24T09:43:37.527Z,97948.97
2022-11-24T09:46:09.258Z,97948.56
2022-11-24T09:48:47.336Z,97949.63
2022-11-24T09:51:15.334Z,97956.38
2022-11-24T09:53:53.824Z,97961.75
2022-11-24T09:56:26.552Z,97961.97
2022-11-24T09:59:06.645Z,97963.03
2022-11-24T10:01:37.013Z,97976.25
2022-11-24T10:04:06.636Z,97956.19
2022-11-24T10:06:46.056Z,97947.44
2022-11-24T10:09:47.233Z,97950.16
2022-11-24T10:12:41.429Z,97944.72
2022-11-24T10:15:18.917Z,97944.94
2022-11-24T10:18:21.264Z,97939.22
2022-11-24T10:21:12.806Z,97943.97
2022-11-24T10:23:46.303Z,97946.13
2022-11-24T10:26:26.984Z,97950.66
2022-11-24T10:28:55.499Z,97947.72
2022-11-24T10:31:23.992Z,97938.13
2022-11-24T10:33:51.100Z,97939.72
2022-11-24T10:36:32.290Z,97939.47
2022-11-24T10:39:05.032Z,97933.59
2022-11-24T10:41:52.177Z,97938.22
2022-11-24T10:44:18.962Z,97949.16
2022-11-24T10:46:45.871Z,97959.59
2022-11-24T10:49:19.998Z,97958.34
2022-11-24T10:51:54.678Z,97949.00
2022-11-24T10:54:23.561Z,97964.31
2022-11-24T10:56:52.335Z,97951.22
2022-11-24T10:59:24.923Z,97959.50
2022-11-24T11:01:52.665Z,97958.97
2022-11-24T11:04:28.176Z,97963.53
2022-11-24T11:07:27.710Z,97967.31
2022-11-24T11:10:33.085Z,97962.53
2022-11-24T11:12:59.882Z,97960.16
2022-11-24T11:15:30.349Z,97965.28
2022-11-24T11:17:59.022Z,97968.00
2022-11-24T11:20:28.261Z,97974.94
2022-11-24T11:22:56.207Z,97963.72
2022-11-24T11:25:41.273Z,97963.19
2022-11-24T11:28:29.675Z,97963.19
2022-11-24T11:31:22.162Z,97968.81
2022-11-24T11:34:08.273Z,97960.81
2022-11-24T11:36:53.175Z,97953.38
2022-11-24T11:39:30.371Z,97948.03
2022-11-24T11:43:01.189Z,97955.28
2022-11-24T11:45:30.148Z,97948.63
2022-11-24T11:48:03.327Z,97945.16
2022-11-24T11:51:06.765Z,97937.13
2022-11-24T11:54:09.053Z,97926.22
2022-11-24T11:56:47.159Z,97925.66
2022-11-24T11:59:16.730Z,97921.41
2022-11-24T12:02:24.966Z,97919.25
2022-11-24T12:04:59.688Z,97911.78
2022-11-24T12:07:41.707Z,97920.06
2022-11-24T12:10:14.660Z,97927.03
2022-11-24T12:13:04.319Z,97940.66
2022-11-24T12:15:47.700Z,97926.22
2022-11-24T12:18:58.799Z,97913.38
2022-11-24T12:21:29.327Z,97907.22
2022-11-24T12:24:19.336Z,97896.25
2022-11-24T12:26:59.247Z,97898.66
2022-11-24T12:29:34.393Z,97892.75
2022-11-24T12:32:31.171Z,97890.34
2022-11-24T12:35:15.648Z,97880.97
2022-11-24T12:38:07.193Z,97883.03
2022-11-24T12:41:18.088Z,97887.56
2022-11-24T12:43:50.769Z,97873.03
2022-11-24T12:46:39.478Z,97867.13
2022-11-24T12:49:18.932Z,97867.34
2022-11-24T12:51:49.399Z,97888.63
2022-11-24T12:54:19.055Z,97893.25
2022-11-24T12:57:23.867Z,97879.38
2022-11-24T13:00:19.691Z,97899.22
2022-11-24T13:02:51.843Z,97883.75
2022-11-24T13:05:48.199Z,97880.59
2022-11-24T13:08:16.009Z,97886.00
2022-11-24T13:10:58.362Z,97877.19
2022-11-24T13:13:50.049Z,97868.94
2022-11-24T13:19:12.654Z,97837.94
2022-11-24T13:21:51.102Z,97842.25
2022-11-24T13:24:19.095Z,97828.91
2022-11-24T13:26:52.845Z,97815.53
2022-11-24T13:29:28.828Z,97800.28
2022-11-24T13:32:17.703Z,97799.53
2022-11-24T13:34:45.791Z,97799.28
2022-11-24T13:37:31.542Z,97803.56
2022-11-24T13:40:22.991Z,97801.16
2022-11-24T13:43:00.482Z,97801.69
2022-11-24T13:45:40.322Z,97793.38
2022-11-24T13:48:19.835Z,97779.19
2022-11-24T13:50:50.007Z,97783.22
2022-11-24T13:53:42.668Z,97773.53
2022-11-24T13:56:12.430Z,97758.03
2022-11-24T13:58:40.860Z,97763.09
2022-11-24T14:01:28.807Z,97760.44
2022-11-24T14:04:30.651Z,97765.28
2022-11-24T14:07:07.873Z,97753.47
2022-11-24T14:09:50.491Z,97752.97
2022-11-24T14:12:23.881Z,97762.63
2022-11-24T14:14:57.210Z,97758.91
2022-11-24T14:17:24.011Z,97751.94
2022-11-24T14:19:55.242Z,97758.84
2022-11-24T14:22:26.812Z,97753.25
2022-11-24T14:25:01.302Z,97766.34
2022-11-24T14:27:34.641Z,97749.72
2022-11-24T14:30:13.653Z,97759.34
2022-11-24T14:32:40.778Z,97769.25
2022-11-24T14:35:31.798Z,97763.91
2022-11-24T14:38:01.366Z,97761.50
2022-11-24T14:40:51.365Z,97765.00
2022-11-24T14:43:30.995Z,97772.22
2022-11-24T14:46:04.896Z,97760.44
2022-11-24T14:48:34.129Z,97758.56
2022-11-24T14:51:15.620Z,97748.38
2022-11-24T14:53:44.181Z,97751.88
2022-11-24T14:56:26.031Z,97745.16
2022-11-24T14:58:54.280Z,97737.47
2022-11-24T15:01:32.862Z,97740.66
2022-11-24T15:04:39.308Z,97734.75
2022-11-24T15:07:11.655Z,97734.78
2022-11-24T15:09:43.133Z,97731.31
2022-11-24T15:12:28.871Z,97741.22
2022-11-24T15:15:07.852Z,97746.84
2022-11-24T15:17:34.825Z,97733.22
2022-11-24T15:20:09.302Z,97738.56
2022-11-24T15:22:41.249Z,97733.78
2022-11-24T15:25:25.810Z,97726.03
2022-11-24T15:27:52.859Z,97727.91
2022-11-24T15:30:19.611Z,97718.00
2022-11-24T15:32:52.182Z,97724.59
2022-11-24T15:35:23.962Z,97720.28
2022-11-24T15:37:54.026Z,97719.59
2022-11-24T15:40:22.375Z,97717.19
2022-11-24T15:42:54.221Z,97717.47
2022-11-24T15:45:24.427Z,97711.84
2022-11-24T15:47:51.712Z,97723.59
2022-11-24T15:50:19.257Z,97720.41
2022-11-24T15:52:46.745Z,97728.97
2022-11-24T15:55:19.166Z,97724.72
2022-11-24T15:57:46.308Z,97720.41
2022-11-24T16:00:20.965Z,97703.25
2022-11-24T16:02:48.081Z,97722.28
2022-11-24T16:05:15.923Z,97705.44
2022-11-24T16:07:42.971Z,97711.84
2022-11-24T16:10:30.582Z,97712.94
2022-11-24T16:12:57.463Z,97714.25
2022-11-24T16:15:24.238Z,97712.66
2022-11-24T16:17:51.381Z,97700.06
2022-11-24T16:20:18.289Z,97695.78
2022-11-24T16:22:45.288Z,97692.31
2022-11-24T16:25:12.470Z,97686.97
2022-11-24T16:27:39.329Z,97692.03
2022-11-24T16:30:07.036Z,97694.47
2022-11-24T16:32:34.007Z,97680.31
2022-11-24T16:35:00.846Z,97693.72
2022-11-24T16:37:27.606Z,97681.69
2022-11-24T16:39:54.393Z,97667.75
2022-11-24T16:42:21.165Z,97665.13
2022-11-24T16:44:49.572Z,97649.31
2022-11-24T16:47:16.743Z,97652.53
2022-11-24T16:49:43.496Z,97656.59
2022-11-24T16:52:10.392Z,97657.41
2022-11-24T16:54:37.231Z,97657.97
2022-11-24T16:57:04.224Z,97653.41
2022-11-24T16:59:31.001Z,97662.22
2022-11-24T17:01:58.792Z,97662.47
2022-11-24T17:04:25.806Z,97656.06
2022-11-24T17:06:52.674Z,97644.31
2022-11-24T17:09:19.405Z,97641.03
2022-11-24T17:11:46.242Z,97647.19
2022-11-24T17:14:13.276Z,97654.66
2022-11-24T17:16:40.652Z,97651.97
2022-11-24T17:19:07.544Z,97644.22
2022-11-24T17:21:34.450Z,97637.28
2022-11-24T17:24:05.508Z,97636.16
2022-11-24T17:26:33.004Z,97636.94
2022-11-24T17:28:59.768Z,97632.94
2022-11-24T17:31:29.048Z,97633.44
2022-11-24T17:33:57.576Z,97633.44
2022-11-24T17:36:24.599Z,97627.53
2022-11-24T17:38:51.852Z,97636.91
2022-11-24T17:41:20.168Z,97622.44
2022-11-24T17:43:51.084Z,97625.09
2022-11-24T17:46:18.286Z,97636.59
2022-11-24T17:48:45.531Z,97623.09
2022-11-24T17:51:17.097Z,97626.84
2022-11-24T17:53:45.503Z,97620.63
2022-11-24T17:56:18.349Z,97617.50
2022-11-24T17:58:45.415Z,97629.72
2022-11-24T18:01:13.387Z,97628.09
2022-11-24T18:03:41.284Z,97634.78
2022-11-24T18:06:13.163Z,97622.41
2022-11-24T18:08:41.864Z,97628.78
2022-11-24T18:11:11.204Z,97613.00
2022-11-24T18:13:56.633Z,97618.94
2022-11-24T18:16:28.018Z,97638.25
2022-11-24T18:19:08.370Z,97629.88
2022-11-24T18:21:37.990Z,97637.91
2022-11-24T18:24:05.036Z,97639.72
2022-11-24T18:26:31.927Z,97638.41
2022-11-24T18:28:58.645Z,97638.75
2022-11-24T18:31:26.375Z,97646.78
2022-11-24T18:33:53.372Z,97644.97
2022-11-24T18:36:30.034Z,97645.66
2022-11-24T18:39:00.370Z,97645.09
2022-11-24T18:41:28.605Z,97654.47
2022-11-24T18:43:58.308Z,97655.81
2022-11-24T18:46:25.246Z,97660.66
2022-11-24T18:48:53.286Z,97655.56
2022-11-24T18:51:20.165Z,97665.25
2022-11-24T18:53:51.851Z,97656.38
2022-11-24T18:56:19.107Z,97656.19
2022-11-24T18:58:46.353Z,97662.81
2022-11-24T19:01:16.033Z,97660.19
2022-11-24T19:03:49.035Z,97664.75
2022-11-24T19:06:17.708Z,97661.81
2022-11-24T19:08:45.243Z,97668.44
2022-11-24T19:11:23.719Z,97659.34
2022-11-24T19:13:51.304Z,97660.69
2022-11-24T19:16:19.553Z,97657.72
2022-11-24T19:18:53.978Z,97653.53
2022-11-24T19:21:22.028Z,97657.53
2022-11-24T19:23:50.041Z,97651.06
2022-11-24T19:26:16.895Z,97650.03
2022-11-24T19:28:44.505Z,97648.94
2022-11-24T19:31:13.140Z,97649.53
2022-11-24T19:33:40.529Z,97649.28
2022-11-24T19:36:18.382Z,97645.66
2022-11-24T19:38:56.110Z,97641.69
2022-11-24T19:41:27.793Z,97643.06
2022-11-24T19:43:55.004Z,97644.16
2022-11-24T19:46:23.439Z,97637.22
2022-11-24T19:48:54.248Z,97633.81
2022-11-24T19:51:24.249Z,97636.72
2022-11-24T19:53:51.277Z,97630.38
2022-11-24T19:56:26.279Z,97629.34
2022-11-24T19:58:54.485Z,97633.38
2022-11-24T20:01:24.773Z,97631.75
2022-11-24T20:03:59.042Z,97640.91
2022-11-24T20:06:31.530Z,97633.97
2022-11-24T20:09:00.467Z,97632.94
2022-11-24T20:11:28.406Z,97636.13
2022-11-24T20:13:55.341Z,97635.63
2022-11-24T20:16:28.263Z,97630.81
2022-11-24T20:19:21.463Z,97629.22
2022-11-24T20:21:50.066Z,97630.03
2022-11-24T20:24:23.373Z,97615.34
2022-11-24T20:26:56.457Z,97622.28
2022-11-24T20:29:23.339Z,97617.50
2022-11-24T20:31:53.451Z,97623.34
2022-11-24T20:34:21.038Z,97629.50
2022-11-24T20:36:48.550Z,97626.31
2022-11-24T20:39:18.638Z,97636.19
2022-11-24T20:41:45.896Z,97650.34
2022-11-24T20:44:15.704Z,97635.41
2022-11-24T20:46:43.819Z,97634.88
2022-11-24T20:49:16.176Z,97640.75
2022-11-24T20:51:49.646Z,97642.63
2022-11-24T20:54:18.247Z,97636.47
2022-11-24T20:56:46.576Z,97637.03
2022-11-24T20:59:16.405Z,97639.94
2022-11-24T21:01:45.644Z,97636.19
2022-11-24T21:04:15.564Z,97639.66
2022-11-24T21:06:42.462Z,97638.34
2022-11-24T21:09:09.691Z,97634.56
2022-11-24T21:11:38.938Z,97634.59
2022-11-24T21:14:06.176Z,97630.31
2022-11-24T21:16:35.356Z,97632.97
2022-11-24T21:19:05.315Z,97625.47
2022-11-24T21:21:34.719Z,97624.63
2022-11-24T21:24:07.306Z,97615.00
2022-11-24T21:26:38.218Z,97615.47
2022-11-24T21:29:05.978Z,97619.50
2022-11-24T21:31:36.858Z,97618.41
2022-11-24T21:34:04.067Z,97614.41
2022-11-24T21:36:31.709Z,97620.56
2022-11-24T21:38:59.180Z,97623.22
2022-11-24T21:41:28.590Z,97620.31
2022-11-24T21:43:56.031Z,97621.63
2022-11-24T21:46:23.272Z,97628.06
2022-11-24T21:48:50.366Z,97625.69
2022-11-24T21:51:19.320Z,97631.03
2022-11-24T21:53:47.107Z,97636.41
2022-11-24T21:56:19.307Z,97645.22
2022-11-24T21:58:52.722Z,97646.03
2022-11-24T22:01:22.060Z,97636.47
2022-11-24T22:03:48.930Z,97646.88
2022-11-24T22:06:17.813Z,97639.66
2022-11-24T22:08:45.116Z,97652.22
2022-11-24T22:11:13.863Z,97655.19
2022-11-24T22:13:41.759Z,97662.41
2022-11-24T22:16:11.147Z,97665.91
2022-11-24T22:18:40.091Z,97663.75
2022-11-24T22:21:08.351Z,97655.50
2022-11-24T22:23:36.013Z,97638.09
2022-11-24T22:26:14.475Z,97636.00
2022-11-24T22:28:41.814Z,97638.13
2022-11-24T22:31:20.461Z,97640.28
2022-11-24T22:33:47.984Z,97632.25
2022-11-24T22:36:16.104Z,97657.63
2022-11-24T22:38:43.308Z,97649.63
2022-11-24T22:41:15.277Z,97660.84
2022-11-24T22:43:43.121Z,97679.00
2022-11-24T22:46:12.193Z,97683.53
2022-11-24T22:48:39.541Z,97692.09
2022-11-24T22:51:08.796Z,97690.19
2022-11-24T22:53:35.754Z,97689.13
2022-11-24T22:56:04.455Z,97696.88
2022-11-24T22:58:33.045Z,97695.00
2022-11-24T23:01:08.931Z,97696.09
2022-11-24T23:03:36.575Z,97700.34
2022-11-24T23:06:05.474Z,97695.25
2022-11-24T23:08:34.010Z,97689.13
2022-11-24T23:11:06.538Z,97685.91
2022-11-24T23:13:33.621Z,97671.22
2022-11-24T23:16:09.343Z,97662.41
2022-11-24T23:18:37.932Z,97660.53
2022-11-24T23:21:15.340Z,97661.63
2022-11-24T23:23:42.658Z,97677.63
2022-11-24T23:26:11.921Z,97677.63
2022-11-24T23:28:39.013Z,97688.03
2022-11-24T23:31:10.061Z,97702.97
2022-11-24T23:33:37.555Z,97708.03
2022-11-24T23:36:09.242Z,97700.03
2022-11-24T23:38:36.503Z,97699.25
2022-11-24T23:41:05.559Z,97704.56
2022-11-24T23:43:33.396Z,97706.72
2022-11-24T23:46:04.149Z,97710.72
2022-11-24T23:48:31.695Z,97711.81
2022-11-24T23:51:06.141Z,97708.59
2022-11-24T23:53:33.737Z,97713.69
2022-11-24T23:56:00.524Z,97731.28
2022-11-24T23:58:27.978Z,97722.25
